createdAt,value
2023-04-23T00:00:19.727Z,18.17
2023-04-23T00:03:21.524Z,18.50
2023-04-23T00:06:05.429Z,14.80
2023-04-23T00:08:39.834Z,16.92
2023-04-23T00:14:39.335Z,20.65
2023-04-23T00:17:16.828Z,18.27
2023-04-23T00:19:53.587Z,15.90
2023-04-23T00:22:27.720Z,19.15
2023-04-23T00:25:01.569Z,18.63
2023-04-23T00:27:33.639Z,17.88
2023-04-23T00:30:07.266Z,16.05
2023-04-23T00:32:42.112Z,18.55
2023-04-23T00:35:13.948Z,17.73
2023-04-23T00:37:46.037Z,21.48
2023-04-23T00:40:21.581Z,20.98
2023-04-23T00:42:58.832Z,18.17
2023-04-23T00:45:31.780Z,18.30
2023-04-23T00:48:10.690Z,18.95
2023-04-23T00:50:42.485Z,16.13
2023-04-23T00:53:15.266Z,17.17
2023-04-23T00:55:46.829Z,17.63
2023-04-23T00:58:18.887Z,20.70
2023-04-23T01:00:52.373Z,20.73
2023-04-23T01:03:30.527Z,19.75
2023-04-23T01:06:02.670Z,20.67
2023-04-23T01:08:36.338Z,16.08
2023-04-23T01:11:09.494Z,20.83
2023-04-23T01:14:07.638Z,18.80
2023-04-23T01:16:40.134Z,17.40
2023-04-23T01:19:16.621Z,18.65
2023-04-23T01:21:48.598Z,19.60
2023-04-23T01:24:23.628Z,17.60
2023-04-23T01:26:55.749Z,17.70
2023-04-23T01:29:28.075Z,18.23
2023-04-23T01:32:00.795Z,16.42
2023-04-23T01:34:35.366Z,18.23
2023-04-23T01:37:07.846Z,17.15
2023-04-23T01:39:42.685Z,18.25
2023-04-23T01:42:14.795Z,19.88
2023-04-23T01:44:47.314Z,19.05
2023-04-23T01:47:19.719Z,15.77
2023-04-23T01:49:51.915Z,18.40
2023-04-23T01:52:24.766Z,18.33
2023-04-23T01:54:59.578Z,19.33
2023-04-23T01:57:31.811Z,19.88
2023-04-23T02:00:09.586Z,18.00
2023-04-23T02:02:43.597Z,23.50
2023-04-23T02:05:22.257Z,18.27
2023-04-23T02:07:55.552Z,21.60
2023-04-23T02:10:31.357Z,25.23
2023-04-23T02:13:04.993Z,20.88
2023-04-23T02:15:38.696Z,25.27
2023-04-23T02:18:11.205Z,25.08
2023-04-23T02:20:44.207Z,22.45
2023-04-23T02:23:16.374Z,23.20
2023-04-23T02:25:52.613Z,28.55
2023-04-23T02:28:24.969Z,27.30
2023-04-23T02:30:57.451Z,24.98
2023-04-23T02:33:29.456Z,27.02
2023-04-23T02:36:09.869Z,24.45
2023-04-23T02:38:42.674Z,26.55
2023-04-23T02:41:18.210Z,25.13
2023-04-23T02:43:52.228Z,22.95
2023-04-23T02:46:24.917Z,24.90
2023-04-23T02:48:57.252Z,26.88
2023-04-23T02:51:29.866Z,29.63
2023-04-23T02:54:04.591Z,27.98
2023-04-23T02:56:39.705Z,24.38
2023-04-23T02:59:11.924Z,28.98
2023-04-23T03:01:44.618Z,27.73
2023-04-23T03:04:35.744Z,28.20
2023-04-23T03:07:08.540Z,27.70
2023-04-23T03:09:42.892Z,30.45
2023-04-23T03:12:18.651Z,30.73
2023-04-23T03:14:50.905Z,27.73
2023-04-23T03:17:23.608Z,26.48
2023-04-23T03:19:55.792Z,26.77
2023-04-23T03:22:28.422Z,24.60
2023-04-23T03:25:11.747Z,24.85
2023-04-23T03:27:48.504Z,23.10
2023-04-23T03:30:20.871Z,25.67
2023-04-23T03:32:54.126Z,23.52
2023-04-23T03:35:26.737Z,22.98
2023-04-23T03:37:59.074Z,21.70
2023-04-23T03:40:31.463Z,24.17
2023-04-23T03:43:06.675Z,23.65
2023-04-23T03:45:38.892Z,22.52
2023-04-23T03:48:11.634Z,24.83
2023-04-23T03:50:44.279Z,22.73
2023-04-23T03:53:19.690Z,21.50
2023-04-23T03:55:51.656Z,24.23
2023-04-23T03:58:26.632Z,20.98
2023-04-23T04:00:58.320Z,23.73
2023-04-23T04:03:30.865Z,21.42
2023-04-23T04:06:02.716Z,23.48
2023-04-23T04:08:35.360Z,23.52
2023-04-23T04:11:08.748Z,24.95
2023-04-23T04:13:43.619Z,19.55
2023-04-23T04:16:15.499Z,21.08
2023-04-23T04:18:47.767Z,23.60
2023-04-23T04:21:19.506Z,24.10
2023-04-23T04:23:51.710Z,22.17
2023-04-23T04:26:23.446Z,24.83
2023-04-23T04:28:58.717Z,22.63
2023-04-23T04:31:31.486Z,23.30
2023-04-23T04:34:04.004Z,21.60
2023-04-23T04:36:38.317Z,21.10
2023-04-23T04:39:10.624Z,25.50
2023-04-23T04:41:43.407Z,19.80
2023-04-23T04:44:18.788Z,18.20
2023-04-23T04:46:50.856Z,18.48
2023-04-23T04:49:23.408Z,19.13
2023-04-23T04:51:55.313Z,17.52
2023-04-23T04:54:27.454Z,20.80
2023-04-23T04:56:59.165Z,23.65
2023-04-23T04:59:34.211Z,22.77
2023-04-23T05:02:06.120Z,21.85
2023-04-23T05:04:38.395Z,22.63
2023-04-23T05:07:10.614Z,22.45
2023-04-23T05:09:44.949Z,20.50
2023-04-23T05:12:17.244Z,18.77
2023-04-23T05:14:53.049Z,21.52
2023-04-23T05:17:26.538Z,17.17
2023-04-23T05:19:58.624Z,18.95
2023-04-23T05:22:30.861Z,16.17
2023-04-23T05:25:03.125Z,19.02
2023-04-23T05:27:35.105Z,18.80
2023-04-23T05:30:12.554Z,18.42
2023-04-23T05:32:44.810Z,18.02
2023-04-23T05:35:17.101Z,15.35
2023-04-23T05:37:48.992Z,16.38
2023-04-23T05:40:21.377Z,17.30
2023-04-23T05:42:53.239Z,15.20
2023-04-23T05:45:28.302Z,19.40
2023-04-23T05:48:00.364Z,17.33
2023-04-23T05:50:32.638Z,15.50
2023-04-23T05:53:04.897Z,18.52
2023-04-23T05:55:37.041Z,20.92
2023-04-23T05:58:10.709Z,19.00
2023-04-23T06:00:47.713Z,16.65
2023-04-23T06:03:19.679Z,19.13
2023-04-23T06:05:52.078Z,15.35
2023-04-23T06:08:25.142Z,18.10
2023-04-23T06:10:58.560Z,16.98
2023-04-23T06:13:31.264Z,15.93
2023-04-23T06:18:52.470Z,15.77
2023-04-23T06:21:24.785Z,18.35
2023-04-23T06:23:57.974Z,18.63
2023-04-23T06:26:32.216Z,17.92
2023-04-23T06:29:05.235Z,16.90
2023-04-23T06:31:42.162Z,15.80
2023-04-23T06:34:13.861Z,15.25
2023-04-23T06:36:46.069Z,15.73
2023-04-23T06:39:17.950Z,16.58
2023-04-23T06:41:50.067Z,18.52
2023-04-23T06:44:21.830Z,14.13
2023-04-23T06:46:56.648Z,13.70
2023-04-23T06:49:28.596Z,17.02
2023-04-23T06:52:01.456Z,16.20
2023-04-23T06:54:33.376Z,15.68
2023-04-23T06:57:05.560Z,16.17
2023-04-23T06:59:37.343Z,17.83
2023-04-23T07:02:12.254Z,16.55
2023-04-23T07:04:44.517Z,17.25
2023-04-23T07:07:16.988Z,18.98
2023-04-23T07:09:48.717Z,19.85
2023-04-23T07:12:21.378Z,19.10
2023-04-23T07:14:53.974Z,17.90
2023-04-23T07:17:29.140Z,20.95
2023-04-23T07:20:01.363Z,23.38
2023-04-23T07:22:33.700Z,23.35
2023-04-23T07:25:06.212Z,22.70
2023-04-23T07:27:38.599Z,22.95
2023-04-23T07:30:11.894Z,25.40
2023-04-23T07:32:47.061Z,21.10
2023-04-23T07:35:19.066Z,21.42
2023-04-23T07:37:54.186Z,23.30
2023-04-23T07:40:26.473Z,25.17
2023-04-23T07:42:59.727Z,24.55
2023-04-23T07:45:31.758Z,24.95
2023-04-23T07:48:07.010Z,21.08
2023-04-23T07:50:38.918Z,24.15
2023-04-23T07:53:11.696Z,24.00
2023-04-23T07:55:44.307Z,28.13
2023-04-23T07:58:16.999Z,24.20
2023-04-23T08:00:49.402Z,23.65
2023-04-23T08:03:35.795Z,21.77
2023-04-23T08:06:08.577Z,28.85
2023-04-23T08:08:41.464Z,23.63
2023-04-23T08:11:14.548Z,24.15
2023-04-23T08:13:50.026Z,21.27
2023-04-23T08:16:22.053Z,24.60
2023-04-23T08:19:04.980Z,22.50
2023-04-23T08:21:38.349Z,27.85
2023-04-23T08:24:11.120Z,20.33
2023-04-23T08:26:43.080Z,21.02
2023-04-23T08:29:15.435Z,26.90
2023-04-23T08:31:47.598Z,27.98
2023-04-23T08:34:22.608Z,20.40
2023-04-23T08:36:54.686Z,23.17
2023-04-23T08:39:28.581Z,21.15
2023-04-23T08:42:08.280Z,23.98
2023-04-23T08:44:45.194Z,17.25
2023-04-23T08:47:21.853Z,17.58
2023-04-23T08:49:58.776Z,17.73
2023-04-23T08:52:36.620Z,18.40
2023-04-23T08:55:15.481Z,23.17
2023-04-23T08:57:48.739Z,17.52
2023-04-23T13:42:24.583Z,5.30
2023-04-23T13:44:57.557Z,3.88
2023-04-23T13:47:33.722Z,4.85
2023-04-23T13:50:07.863Z,3.80
2023-04-23T13:52:40.694Z,5.95
2023-04-23T13:55:13.657Z,6.60
2023-04-23T13:57:48.703Z,4.57
2023-04-23T14:00:21.975Z,3.03
2023-04-23T14:02:54.454Z,4.47
2023-04-23T14:05:53.283Z,5.20
2023-04-23T14:08:25.463Z,4.72
2023-04-23T14:10:58.002Z,4.28
2023-04-23T14:13:55.195Z,5.07
2023-04-23T14:16:46.692Z,6.22
2023-04-23T14:19:20.816Z,5.45
2023-04-23T14:21:53.777Z,3.78
2023-04-23T14:24:31.355Z,5.22
2023-04-23T14:27:05.657Z,4.13
2023-04-23T14:29:48.597Z,4.00
2023-04-23T14:32:21.523Z,5.18
2023-04-23T14:34:53.944Z,5.63
2023-04-23T14:37:26.815Z,5.32
2023-04-23T14:39:58.944Z,3.63
2023-04-23T14:42:31.630Z,5.93
2023-04-23T14:45:06.951Z,3.63
2023-04-23T14:47:41.191Z,4.63
2023-04-23T14:50:14.775Z,3.75
2023-04-23T14:52:51.054Z,4.70
2023-04-23T14:55:24.712Z,2.72
2023-04-23T14:57:57.502Z,8.88
2023-04-23T15:00:32.438Z,3.30
2023-04-23T15:03:09.024Z,2.95
2023-04-23T15:05:42.118Z,3.38
2023-04-23T15:08:14.834Z,2.95
2023-04-23T15:10:47.456Z,3.08
2023-04-23T15:13:49.632Z,4.53
2023-04-23T15:19:10.494Z,2.72
2023-04-23T15:21:43.387Z,4.20
2023-04-23T15:24:16.070Z,3.15
2023-04-23T15:26:50.536Z,2.95
2023-04-23T15:29:24.836Z,3.13
2023-04-23T15:32:00.113Z,4.15
2023-04-23T15:34:32.497Z,3.03
2023-04-23T15:37:04.740Z,3.08
2023-04-23T15:39:37.477Z,4.00
2023-04-23T15:42:11.776Z,3.28
2023-04-23T15:44:44.418Z,4.13
2023-04-23T15:47:28.232Z,6.53
2023-04-23T15:50:01.950Z,3.08
2023-04-23T15:52:34.982Z,3.55
2023-04-23T15:58:05.655Z,2.72
2023-04-23T16:00:38.394Z,3.35
2023-04-23T16:03:15.548Z,1.95
2023-04-23T16:05:51.044Z,3.80
2023-04-23T16:08:28.961Z,2.92
2023-04-23T16:11:01.711Z,4.07
2023-04-23T16:13:34.073Z,4.18
2023-04-23T16:16:06.852Z,2.53
2023-04-23T16:18:57.141Z,3.10
2023-04-23T16:21:31.655Z,2.63
2023-04-23T16:24:04.228Z,2.25
2023-04-23T16:26:37.735Z,3.20
2023-04-23T16:29:21.640Z,3.22
2023-04-23T16:31:55.653Z,2.97
2023-04-23T16:34:30.636Z,2.38
2023-04-23T16:37:03.098Z,3.30
2023-04-23T16:39:35.439Z,3.65
2023-04-23T16:42:08.337Z,3.25
2023-04-23T16:44:40.865Z,1.90
2023-04-23T16:47:13.675Z,3.78
2023-04-23T16:49:48.703Z,3.63
2023-04-23T16:52:21.518Z,2.38
2023-04-23T16:54:53.801Z,4.32
2023-04-23T16:57:26.485Z,4.60
2023-04-23T16:59:58.689Z,2.95
2023-04-23T17:02:31.489Z,4.93
2023-04-23T17:05:06.584Z,3.22
2023-04-23T17:07:41.234Z,3.65
2023-04-23T17:10:15.828Z,5.65
2023-04-23T17:12:50.189Z,6.35
2023-04-23T17:15:23.122Z,5.22
2023-04-23T17:17:55.891Z,4.97
2023-04-23T17:20:35.432Z,7.00
2023-04-23T17:23:07.962Z,3.17
2023-04-23T17:25:40.214Z,2.85
2023-04-23T17:28:12.935Z,2.83
2023-04-23T17:30:45.825Z,3.22
2023-04-23T17:33:18.352Z,5.05
2023-04-23T17:35:55.653Z,4.45
2023-04-23T17:38:29.563Z,3.55
2023-04-23T17:41:02.052Z,3.38
2023-04-23T17:43:35.252Z,3.53
2023-04-23T17:46:07.672Z,2.42
2023-04-23T17:48:41.472Z,4.15
2023-04-23T17:51:16.639Z,5.93
2023-04-23T17:53:51.012Z,4.40
2023-04-23T17:56:23.402Z,4.63
2023-04-23T17:58:55.823Z,4.32
2023-04-23T18:01:28.047Z,5.22
2023-04-23T18:04:00.890Z,4.53
2023-04-23T18:06:36.174Z,10.20
2023-04-23T18:09:09.171Z,3.55
2023-04-23T18:11:41.544Z,3.95
2023-04-23T18:14:14.897Z,5.15
2023-04-23T18:16:47.269Z,5.88
2023-04-23T18:19:20.193Z,5.57
2023-04-23T18:21:56.273Z,5.28
2023-04-23T18:24:28.716Z,6.88
2023-04-23T18:27:02.550Z,9.70
2023-04-23T18:29:35.318Z,7.55
2023-04-23T18:32:08.163Z,9.00
2023-04-23T18:34:42.944Z,6.72
2023-04-23T18:37:35.696Z,10.57
2023-04-23T18:40:09.839Z,7.78
2023-04-23T18:42:42.336Z,7.45
2023-04-23T18:45:15.274Z,14.35
2023-04-23T18:47:54.423Z,11.60
2023-04-23T18:50:39.418Z,9.63
2023-04-23T18:53:14.457Z,10.65
2023-04-23T18:55:47.175Z,8.43
2023-04-23T18:58:19.419Z,9.15
2023-04-23T19:01:24.744Z,9.10
2023-04-23T19:03:58.018Z,9.68
2023-04-23T19:06:31.636Z,10.70
2023-04-23T19:09:07.072Z,10.07
2023-04-23T19:11:39.795Z,31.25
2023-04-23T19:14:12.116Z,23.00
2023-04-23T19:16:44.613Z,11.00
2023-04-23T19:19:16.999Z,12.48
2023-04-23T19:21:49.441Z,12.70
2023-04-23T19:24:24.516Z,12.95
2023-04-23T19:26:58.455Z,9.73
2023-04-23T19:29:31.171Z,11.98
2023-04-23T19:32:04.051Z,12.18
2023-04-23T19:34:36.392Z,12.23
2023-04-23T19:37:08.979Z,11.00
2023-04-23T19:39:44.179Z,13.15
2023-04-23T19:42:17.340Z,8.90
2023-04-23T19:44:50.157Z,13.85
2023-04-23T19:47:23.227Z,13.70
2023-04-23T19:49:55.542Z,12.18
2023-04-23T19:52:30.218Z,13.93
2023-04-23T19:55:05.615Z,13.32
2023-04-23T19:57:38.290Z,11.32
2023-04-23T20:00:14.356Z,15.55
2023-04-23T20:02:47.294Z,16.00
2023-04-23T20:05:19.615Z,12.80
2023-04-23T20:07:52.892Z,26.88
2023-04-23T20:10:31.040Z,14.23
2023-04-23T20:13:03.852Z,12.70
2023-04-23T20:15:37.314Z,12.18
2023-04-23T20:18:10.061Z,15.27
2023-04-23T20:20:50.404Z,12.52
2023-04-23T20:23:23.257Z,11.02
2023-04-23T20:26:01.431Z,12.05
2023-04-23T20:28:34.173Z,18.08
2023-04-23T20:31:06.494Z,11.02
2023-04-23T20:33:39.054Z,15.30
2023-04-23T20:36:13.452Z,12.95
2023-04-23T20:38:46.549Z,13.68
2023-04-23T20:41:23.493Z,13.10
2023-04-23T20:43:55.855Z,14.07
2023-04-23T20:46:30.630Z,12.25
2023-04-23T20:49:03.597Z,13.40
2023-04-23T20:51:36.593Z,12.25
2023-04-23T20:54:09.023Z,11.02
2023-04-23T20:56:43.737Z,11.90
2023-04-23T20:59:16.276Z,11.80
2023-04-23T21:01:48.372Z,11.13
2023-04-23T21:04:20.907Z,11.25
2023-04-23T21:07:05.426Z,12.07
2023-04-23T21:09:37.797Z,9.60
2023-04-23T21:12:12.696Z,10.65
2023-04-23T21:14:45.402Z,10.98
2023-04-23T22:16:50.411Z,9.48
2023-04-23T22:19:25.707Z,9.10
2023-04-23T22:21:58.112Z,8.82
2023-04-23T22:24:30.726Z,11.02
2023-04-23T22:27:11.478Z,9.07
2023-04-23T22:29:44.070Z,8.63
2023-04-23T22:32:16.163Z,7.75
2023-04-23T22:34:52.024Z,11.90
2023-04-23T22:37:24.254Z,8.93
2023-04-23T22:39:57.557Z,8.73
2023-04-23T22:42:29.844Z,9.82
2023-04-23T22:45:02.248Z,11.77
2023-04-23T22:47:38.794Z,10.85
2023-04-23T22:50:14.834Z,8.52
2023-04-23T22:52:47.158Z,9.77
2023-04-23T22:55:19.518Z,10.02
2023-04-23T22:57:51.487Z,9.43
2023-04-23T23:00:23.784Z,9.48
2023-04-23T23:02:55.684Z,8.57
2023-04-23T23:05:30.712Z,8.57
2023-04-23T23:08:37.938Z,11.40
2023-04-23T23:11:10.140Z,10.48
2023-04-23T23:13:42.876Z,10.05
2023-04-23T23:16:15.377Z,8.13
2023-04-23T23:18:47.194Z,12.07
2023-04-23T23:21:22.199Z,9.30
2023-04-23T23:23:54.301Z,9.60
2023-04-23T23:26:26.657Z,13.35
2023-04-23T23:28:58.922Z,10.20
2023-04-23T23:31:32.705Z,8.93
2023-04-23T23:34:05.038Z,8.98
2023-04-23T23:36:40.055Z,8.55
2023-04-23T23:39:13.104Z,10.30
2023-04-23T23:41:45.403Z,8.52
2023-04-23T23:44:17.536Z,10.23
2023-04-23T23:46:49.838Z,9.65
2023-04-23T23:49:22.094Z,11.00
2023-04-23T23:51:57.207Z,11.70
2023-04-23T23:54:29.100Z,9.18
2023-04-23T23:57:02.340Z,9.55
2023-04-23T23:59:34.561Z,10.70
